sensor_id;sensor_type;location;lat;lon;timestamp;pressure;altitude;pressure_sealevel;temperature;humidity
37848;BME280;23688;33.130;-117.188;2023-10-19T00:00:49;99168.81;;;23.81;84.49
37848;BME280;23688;33.130;-117.188;2023-10-19T00:03:19;99165.38;;;23.76;84.28
37848;BME280;23688;33.130;-117.188;2023-10-19T00:05:46;99168.75;;;23.84;85.04
37848;BME280;23688;33.130;-117.188;2023-10-19T00:08:13;99176.28;;;24.07;84.59
37848;BME280;23688;33.130;-117.188;2023-10-19T00:10:51;99176.16;;;24.13;82.94
37848;BME280;23688;33.130;-117.188;2023-10-19T00:13:49;99180.75;;;24.05;82.39
37848;BME280;23688;33.130;-117.188;2023-10-19T00:16:16;99177.63;;;23.80;83.40
37848;BME280;23688;33.130;-117.188;2023-10-19T00:18:46;99189.47;;;23.59;85.46
37848;BME280;23688;33.130;-117.188;2023-10-19T00:21:14;99172.78;;;23.52;86.05
37848;BME280;23688;33.130;-117.188;2023-10-19T00:23:55;99163.03;;;23.56;85.40
37848;BME280;23688;33.130;-117.188;2023-10-19T00:26:30;99172.50;;;23.67;85.95
37848;BME280;23688;33.130;-117.188;2023-10-19T00:28:57;99175.22;;;23.66;86.17
37848;BME280;23688;33.130;-117.188;2023-10-19T00:31:24;99164.53;;;23.70;85.47
37848;BME280;23688;33.130;-117.188;2023-10-19T00:33:54;99167.44;;;23.55;86.37
37848;BME280;23688;33.130;-117.188;2023-10-19T00:36:22;99167.63;;;23.43;87.17
37848;BME280;23688;33.130;-117.188;2023-10-19T00:38:50;99173.91;;;23.37;87.60
37848;BME280;23688;33.130;-117.188;2023-10-19T00:41:18;99179.34;;;23.28;87.40
37848;BME280;23688;33.130;-117.188;2023-10-19T00:44:03;99165.16;;;23.32;87.23
37848;BME280;23688;33.130;-117.188;2023-10-19T00:46:42;99179.88;;;23.52;86.80
37848;BME280;23688;33.130;-117.188;2023-10-19T00:49:10;99165.63;;;23.59;86.08
37848;BME280;23688;33.130;-117.188;2023-10-19T00:51:59;99163.84;;;23.58;86.09
37848;BME280;23688;33.130;-117.188;2023-10-19T00:54:35;99169.06;;;23.62;86.07
37848;BME280;23688;33.130;-117.188;2023-10-19T00:57:12;99157.72;;;23.56;85.99
37848;BME280;23688;33.130;-117.188;2023-10-19T00:59:41;99174.50;;;23.56;86.08
37848;BME280;23688;33.130;-117.188;2023-10-19T01:02:21;99167.50;;;23.50;86.15
37848;BME280;23688;33.130;-117.188;2023-10-19T01:04:55;99172.06;;;23.42;86.32
37848;BME280;23688;33.130;-117.188;2023-10-19T01:07:41;99170.59;;;23.21;86.98
37848;BME280;23688;33.130;-117.188;2023-10-19T01:10:09;99173.53;;;23.03;87.58
37848;BME280;23688;33.130;-117.188;2023-10-19T01:13:11;99165.63;;;22.97;88.14
37848;BME280;23688;33.130;-117.188;2023-10-19T01:15:37;99178.00;;;22.96;87.57
37848;BME280;23688;33.130;-117.188;2023-10-19T01:18:05;99171.16;;;22.83;88.13
37848;BME280;23688;33.130;-117.188;2023-10-19T01:20:33;99177.38;;;22.80;88.94
37848;BME280;23688;33.130;-117.188;2023-10-19T01:23:25;99181.84;;;22.72;89.24
37848;BME280;23688;33.130;-117.188;2023-10-19T01:25:57;99185.53;;;22.63;89.92
37848;BME280;23688;33.130;-117.188;2023-10-19T01:28:31;99190.97;;;22.48;90.56
37848;BME280;23688;33.130;-117.188;2023-10-19T01:31:24;99163.84;;;22.31;91.40
37848;BME280;23688;33.130;-117.188;2023-10-19T01:33:57;99187.59;;;22.35;91.83
37848;BME280;23688;33.130;-117.188;2023-10-19T01:36:25;99184.22;;;22.24;92.06
37848;BME280;23688;33.130;-117.188;2023-10-19T01:38:55;99187.78;;;22.20;92.38
37848;BME280;23688;33.130;-117.188;2023-10-19T01:41:27;99186.06;;;22.14;92.72
37848;BME280;23688;33.130;-117.188;2023-10-19T01:43:54;99178.19;;;22.07;93.41
37848;BME280;23688;33.130;-117.188;2023-10-19T01:46:23;99202.91;;;22.02;93.81
37848;BME280;23688;33.130;-117.188;2023-10-19T01:49:11;99192.38;;;21.96;94.71
37848;BME280;23688;33.130;-117.188;2023-10-19T01:51:37;99189.84;;;21.86;94.83
37848;BME280;23688;33.130;-117.188;2023-10-19T01:54:05;99197.97;;;21.66;95.48
37848;BME280;23688;33.130;-117.188;2023-10-19T01:56:32;99204.22;;;21.54;96.95
37848;BME280;23688;33.130;-117.188;2023-10-19T01:59:04;99207.69;;;21.57;97.00
37848;BME280;23688;33.130;-117.188;2023-10-19T02:01:31;99206.91;;;21.49;96.89
37848;BME280;23688;33.130;-117.188;2023-10-19T02:04:04;99208.66;;;21.46;97.33
37848;BME280;23688;33.130;-117.188;2023-10-19T02:06:33;99224.63;;;21.26;97.98
37848;BME280;23688;33.130;-117.188;2023-10-19T02:09:08;99226.47;;;21.13;98.66
37848;BME280;23688;33.130;-117.188;2023-10-19T02:11:41;99223.97;;;20.82;100.00
37848;BME280;23688;33.130;-117.188;2023-10-19T02:14:11;99220.56;;;20.59;100.00
37848;BME280;23688;33.130;-117.188;2023-10-19T02:16:46;99223.19;;;20.60;100.00
37848;BME280;23688;33.130;-117.188;2023-10-19T02:19:16;99231.97;;;20.58;100.00
37848;BME280;23688;33.130;-117.188;2023-10-19T02:21:43;99225.84;;;20.59;100.00
37848;BME280;23688;33.130;-117.188;2023-10-19T02:24:14;99230.25;;;20.58;100.00
37848;BME280;23688;33.130;-117.188;2023-10-19T02:26:42;99239.00;;;20.63;100.00
37848;BME280;23688;33.130;-117.188;2023-10-19T02:29:10;99226.72;;;20.56;100.00
37848;BME280;23688;33.130;-117.188;2023-10-19T02:31:58;99235.53;;;20.46;100.00
37848;BME280;23688;33.130;-117.188;2023-10-19T02:34:31;99236.41;;;20.40;100.00
37848;BME280;23688;33.130;-117.188;2023-10-19T02:36:57;99240.81;;;20.34;100.00
37848;BME280;23688;33.130;-117.188;2023-10-19T02:39:24;99232.06;;;20.13;100.00
37848;BME280;23688;33.130;-117.188;2023-10-19T02:41:54;99231.19;;;19.99;100.00
37848;BME280;23688;33.130;-117.188;2023-10-19T02:44:22;99254.03;;;20.01;100.00
37848;BME280;23688;33.130;-117.188;2023-10-19T02:46:53;99238.22;;;20.01;100.00
37848;BME280;23688;33.130;-117.188;2023-10-19T02:49:25;99252.28;;;20.00;100.00
37848;BME280;23688;33.130;-117.188;2023-10-19T02:51:54;99248.78;;;20.03;100.00
37848;BME280;23688;33.130;-117.188;2023-10-19T02:54:22;99240.88;;;20.03;100.00
37848;BME280;23688;33.130;-117.188;2023-10-19T02:56:54;99236.47;;;19.96;100.00
37848;BME280;23688;33.130;-117.188;2023-10-19T02:59:24;99232.97;;;19.95;100.00
37848;BME280;23688;33.130;-117.188;2023-10-19T03:01:56;99244.38;;;20.00;100.00
37848;BME280;23688;33.130;-117.188;2023-10-19T03:04:43;99235.59;;;19.89;100.00
37848;BME280;23688;33.130;-117.188;2023-10-19T03:07:11;99261.94;;;19.92;100.00
37848;BME280;23688;33.130;-117.188;2023-10-19T03:09:41;99255.81;;;19.90;100.00
37848;BME280;23688;33.130;-117.188;2023-10-19T03:12:20;99261.09;;;19.95;100.00
37848;BME280;23688;33.130;-117.188;2023-10-19T03:14:46;99264.59;;;19.87;100.00
37848;BME280;23688;33.130;-117.188;2023-10-19T03:17:14;99261.06;;;19.84;100.00
37848;BME280;23688;33.130;-117.188;2023-10-19T03:19:43;99245.28;;;19.69;100.00
37848;BME280;23688;33.130;-117.188;2023-10-19T03:22:10;99254.06;;;19.71;100.00
37848;BME280;23688;33.130;-117.188;2023-10-19T03:24:37;99254.03;;;19.69;100.00
37848;BME280;23688;33.130;-117.188;2023-10-19T03:27:11;99255.78;;;19.65;100.00
37848;BME280;23688;33.130;-117.188;2023-10-19T03:29:49;99259.31;;;19.72;100.00
37848;BME280;23688;33.130;-117.188;2023-10-19T03:32:22;99256.66;;;19.66;100.00
37848;BME280;23688;33.130;-117.188;2023-10-19T03:35:11;99269.78;;;19.60;100.00
37848;BME280;23688;33.130;-117.188;2023-10-19T03:37:41;99271.53;;;19.47;100.00
37848;BME280;23688;33.130;-117.188;2023-10-19T03:40:08;99259.22;;;19.35;100.00
37848;BME280;23688;33.130;-117.188;2023-10-19T03:42:40;99282.03;;;19.38;100.00
37848;BME280;23688;33.130;-117.188;2023-10-19T03:45:08;99268.88;;;19.30;100.00
37848;BME280;23688;33.130;-117.188;2023-10-19T03:47:43;99278.53;;;19.27;100.00
37848;BME280;23688;33.130;-117.188;2023-10-19T03:50:11;99272.34;;;19.17;100.00
37848;BME280;23688;33.130;-117.188;2023-10-19T03:52:40;99279.38;;;19.19;100.00
37848;BME280;23688;33.130;-117.188;2023-10-19T03:55:08;99281.09;;;19.16;100.00
37848;BME280;23688;33.130;-117.188;2023-10-19T03:57:39;99286.38;;;19.10;100.00
37848;BME280;23688;33.130;-117.188;2023-10-19T04:00:28;99281.09;;;19.02;100.00
37848;BME280;23688;33.130;-117.188;2023-10-19T04:02:59;99287.19;;;18.95;100.00
37848;BME280;23688;33.130;-117.188;2023-10-19T04:05:25;99281.00;;;18.87;100.00
37848;BME280;23688;33.130;-117.188;2023-10-19T04:07:52;99279.25;;;18.83;100.00
37848;BME280;23688;33.130;-117.188;2023-10-19T04:10:23;99291.53;;;18.88;100.00
37848;BME280;23688;33.130;-117.188;2023-10-19T04:13:11;99302.94;;;18.92;100.00
37848;BME280;23688;33.130;-117.188;2023-10-19T04:15:55;99301.19;;;18.91;100.00
37848;BME280;23688;33.130;-117.188;2023-10-19T04:18:23;99290.59;;;18.77;100.00
37848;BME280;23688;33.130;-117.188;2023-10-19T04:20:51;99295.78;;;18.72;100.00
37848;BME280;23688;33.130;-117.188;2023-10-19T04:23:22;99313.31;;;18.70;100.00
37848;BME280;23688;33.130;-117.188;2023-10-19T04:25:53;99297.50;;;18.61;100.00
37848;BME280;23688;33.130;-117.188;2023-10-19T04:28:22;99305.34;;;18.58;100.00
37848;BME280;23688;33.130;-117.188;2023-10-19T04:31:06;99302.72;;;18.55;100.00
37848;BME280;23688;33.130;-117.188;2023-10-19T04:33:33;99306.25;;;18.60;100.00
37848;BME280;23688;33.130;-117.188;2023-10-19T04:36:04;99312.38;;;18.56;100.00
37848;BME280;23688;33.130;-117.188;2023-10-19T04:38:34;99302.69;;;18.50;100.00
37848;BME280;23688;33.130;-117.188;2023-10-19T04:41:10;99316.75;;;18.54;100.00
37848;BME280;23688;33.130;-117.188;2023-10-19T04:43:40;99321.91;;;18.43;100.00
37848;BME280;23688;33.130;-117.188;2023-10-19T04:46:10;99304.25;;;18.22;100.00
37848;BME280;23688;33.130;-117.188;2023-10-19T04:48:38;99300.69;;;18.12;100.00
37848;BME280;23688;33.130;-117.188;2023-10-19T04:51:08;99311.22;;;18.17;100.00
37848;BME280;23688;33.130;-117.188;2023-10-19T04:53:35;99309.44;;;18.13;100.00
37848;BME280;23688;33.130;-117.188;2023-10-19T04:56:03;99310.31;;;18.16;100.00
37848;BME280;23688;33.130;-117.188;2023-10-19T04:58:30;99302.44;;;18.16;100.00
37848;BME280;23688;33.130;-117.188;2023-10-19T05:00:56;99297.13;;;18.09;100.00
37848;BME280;23688;33.130;-117.188;2023-10-19T05:03:25;99301.50;;;18.07;100.00
37848;BME280;23688;33.130;-117.188;2023-10-19T05:05:52;99308.59;;;18.15;100.00
37848;BME280;23688;33.130;-117.188;2023-10-19T05:08:18;99325.22;;;18.16;100.00
37848;BME280;23688;33.130;-117.188;2023-10-19T05:10:44;99321.69;;;18.12;100.00
37848;BME280;23688;33.130;-117.188;2023-10-19T05:13:11;99314.63;;;18.07;100.00
37848;BME280;23688;33.130;-117.188;2023-10-19T05:15:38;99321.63;;;18.03;100.00
37848;BME280;23688;33.130;-117.188;2023-10-19T05:18:05;99324.19;;;17.97;100.00
37848;BME280;23688;33.130;-117.188;2023-10-19T05:20:31;99334.69;;;17.95;100.00
37848;BME280;23688;33.130;-117.188;2023-10-19T05:22:58;99316.22;;;17.86;100.00
37848;BME280;23688;33.130;-117.188;2023-10-19T05:25:26;99335.53;;;17.90;100.00
37848;BME280;23688;33.130;-117.188;2023-10-19T05:27:52;99315.22;;;17.76;100.00
37848;BME280;23688;33.130;-117.188;2023-10-19T05:30:18;99325.72;;;17.76;100.00
37848;BME280;23688;33.130;-117.188;2023-10-19T05:32:48;99313.38;;;17.66;100.00
37848;BME280;23688;33.130;-117.188;2023-10-19T05:35:17;99327.41;;;17.70;100.00
37848;BME280;23688;33.130;-117.188;2023-10-19T05:37:53;99330.03;;;17.70;100.00
37848;BME280;23688;33.130;-117.188;2023-10-19T05:40:21;99328.22;;;17.64;100.00
37848;BME280;23688;33.130;-117.188;2023-10-19T05:42:49;99320.31;;;17.63;100.00
37848;BME280;23688;33.130;-117.188;2023-10-19T05:45:15;99332.59;;;17.64;100.00
37848;BME280;23688;33.130;-117.188;2023-10-19T05:47:45;99317.63;;;17.55;100.00
37848;BME280;23688;33.130;-117.188;2023-10-19T05:50:11;99326.38;;;17.55;100.00
37848;BME280;23688;33.130;-117.188;2023-10-19T05:52:44;99314.06;;;17.47;100.00
37848;BME280;23688;33.130;-117.188;2023-10-19T05:55:14;99322.88;;;17.53;100.00
37848;BME280;23688;33.130;-117.188;2023-10-19T05:57:41;99326.34;;;17.52;100.00
37848;BME280;23688;33.130;-117.188;2023-10-19T06:00:11;99311.38;;;17.42;100.00
37848;BME280;23688;33.130;-117.188;2023-10-19T06:02:45;99309.53;;;17.35;100.00
37848;BME280;23688;33.130;-117.188;2023-10-19T06:05:30;99323.56;;;17.37;100.00
37848;BME280;23688;33.130;-117.188;2023-10-19T06:07:57;99320.84;;;17.28;100.00
37848;BME280;23688;33.130;-117.188;2023-10-19T06:10:27;99325.19;;;17.26;100.00
37848;BME280;23688;33.130;-117.188;2023-10-19T06:12:54;99317.16;;;17.12;100.00
37848;BME280;23688;33.130;-117.188;2023-10-19T06:15:22;99317.09;;;17.07;100.00
37848;BME280;23688;33.130;-117.188;2023-10-19T06:17:51;99319.78;;;17.12;100.00
37848;BME280;23688;33.130;-117.188;2023-10-19T06:20:18;99321.47;;;17.08;100.00
37848;BME280;23688;33.130;-117.188;2023-10-19T06:22:56;99314.41;;;17.00;100.00
37848;BME280;23688;33.130;-117.188;2023-10-19T06:25:30;99316.97;;;16.97;100.00
37848;BME280;23688;33.130;-117.188;2023-10-19T06:27:57;99316.91;;;16.90;100.00
37848;BME280;23688;33.130;-117.188;2023-10-19T06:30:25;99320.41;;;16.93;100.00
37848;BME280;23688;33.130;-117.188;2023-10-19T06:32:57;99322.91;;;16.83;100.00
37848;BME280;23688;33.130;-117.188;2023-10-19T06:35:27;99320.25;;;16.80;100.00
37848;BME280;23688;33.130;-117.188;2023-10-19T06:37:55;99313.22;;;16.78;100.00
37848;BME280;23688;33.130;-117.188;2023-10-19T06:40:21;99322.00;;;16.81;100.00
37848;BME280;23688;33.130;-117.188;2023-10-19T06:42:49;99312.41;;;16.80;100.00
37848;BME280;23688;33.130;-117.188;2023-10-19T06:45:17;99315.03;;;16.80;100.00
37848;BME280;23688;33.130;-117.188;2023-10-19T06:47:47;99321.97;;;16.80;100.00
37848;BME280;23688;33.130;-117.188;2023-10-19T06:50:18;99323.72;;;16.79;100.00
37848;BME280;23688;33.130;-117.188;2023-10-19T06:52:46;99322.78;;;16.77;100.00
37848;BME280;23688;33.130;-117.188;2023-10-19T06:55:14;99329.00;;;16.81;100.00
37848;BME280;23688;33.130;-117.188;2023-10-19T06:57:52;99329.84;;;16.78;100.00
37848;BME280;23688;33.130;-117.188;2023-10-19T07:00:20;99320.09;;;16.73;100.00
37848;BME280;23688;33.130;-117.188;2023-10-19T07:02:54;99323.59;;;16.72;100.00
37848;BME280;23688;33.130;-117.188;2023-10-19T07:05:21;99312.13;;;16.65;100.00
37848;BME280;23688;33.130;-117.188;2023-10-19T07:07:50;99307.72;;;16.61;100.00
37848;BME280;23688;33.130;-117.188;2023-10-19T07:10:18;99327.09;;;16.71;100.00
37848;BME280;23688;33.130;-117.188;2023-10-19T07:12:46;99323.56;;;16.68;100.00
37848;BME280;23688;33.130;-117.188;2023-10-19T07:15:13;99311.25;;;16.64;100.00
37848;BME280;23688;33.130;-117.188;2023-10-19T07:17:41;99324.41;;;16.66;100.00
37848;BME280;23688;33.130;-117.188;2023-10-19T07:20:09;99313.78;;;16.57;100.00
37848;BME280;23688;33.130;-117.188;2023-10-19T07:22:48;99310.88;;;16.37;100.00
37848;BME280;23688;33.130;-117.188;2023-10-19T07:25:15;99302.06;;;16.32;100.00
37848;BME280;23688;33.130;-117.188;2023-10-19T07:27:41;99308.22;;;16.35;100.00
37848;BME280;23688;33.130;-117.188;2023-10-19T07:30:10;99304.69;;;16.32;100.00
37848;BME280;23688;33.130;-117.188;2023-10-19T07:32:38;99313.41;;;16.34;100.00
37848;BME280;23688;33.130;-117.188;2023-10-19T07:35:06;99312.59;;;16.35;100.00
37848;BME280;23688;33.130;-117.188;2023-10-19T07:37:32;99320.44;;;16.35;100.00
37848;BME280;23688;33.130;-117.188;2023-10-19T07:39:59;99313.50;;;16.37;100.00
37848;BME280;23688;33.130;-117.188;2023-10-19T07:42:25;99311.75;;;16.37;100.00
37848;BME280;23688;33.130;-117.188;2023-10-19T07:44:51;99311.75;;;16.37;100.00
37848;BME280;23688;33.130;-117.188;2023-10-19T07:47:18;99304.69;;;16.33;100.00
37848;BME280;23688;33.130;-117.188;2023-10-19T07:49:44;99310.75;;;16.31;100.00
37848;BME280;23688;33.130;-117.188;2023-10-19T07:52:13;99318.63;;;16.31;100.00
37848;BME280;23688;33.130;-117.188;2023-10-19T07:54:40;99319.47;;;16.28;100.00
37848;BME280;23688;33.130;-117.188;2023-10-19T07:57:06;99318.44;;;16.17;100.00
37848;BME280;23688;33.130;-117.188;2023-10-19T07:59:33;99332.31;;;16.13;100.00
37848;BME280;23688;33.130;-117.188;2023-10-19T08:02:01;99325.19;;;16.02;100.00
37848;BME280;23688;33.130;-117.188;2023-10-19T08:04:36;99325.25;;;16.09;100.00
37848;BME280;23688;33.130;-117.188;2023-10-19T08:07:03;99317.34;;;16.05;100.00
37848;BME280;23688;33.130;-117.188;2023-10-19T08:09:30;99335.81;;;16.13;100.00
37848;BME280;23688;33.130;-117.188;2023-10-19T08:12:00;99327.09;;;16.13;100.00
37848;BME280;23688;33.130;-117.188;2023-10-19T08:14:31;99329.69;;;16.13;100.00
37848;BME280;23688;33.130;-117.188;2023-10-19T08:16:59;99327.03;;;16.10;100.00
37848;BME280;23688;33.130;-117.188;2023-10-19T08:19:27;99322.63;;;16.09;100.00
37848;BME280;23688;33.130;-117.188;2023-10-19T08:21:53;99313.78;;;16.00;100.00
37848;BME280;23688;33.130;-117.188;2023-10-19T08:24:20;99322.53;;;16.01;100.00
37848;BME280;23688;33.130;-117.188;2023-10-19T08:26:46;99318.16;;;16.00;100.00
37848;BME280;23688;33.130;-117.188;2023-10-19T08:29:13;99320.78;;;16.01;100.00
37848;BME280;23688;33.130;-117.188;2023-10-19T08:31:43;99311.88;;;15.92;100.00
37848;BME280;23688;33.130;-117.188;2023-10-19T08:34:13;99319.69;;;15.89;100.00
37848;BME280;23688;33.130;-117.188;2023-10-19T08:36:40;99330.22;;;15.90;100.00
37848;BME280;23688;33.130;-117.188;2023-10-19T08:39:10;99313.34;;;15.74;100.00
37848;BME280;23688;33.130;-117.188;2023-10-19T08:41:39;99321.97;;;15.70;100.00
37848;BME280;23688;33.130;-117.188;2023-10-19T08:44:07;99313.00;;;15.56;100.00
37848;BME280;23688;33.130;-117.188;2023-10-19T08:46:41;99301.47;;;15.46;100.00
37848;BME280;23688;33.130;-117.188;2023-10-19T08:49:15;99312.81;;;15.47;100.00
37848;BME280;23688;33.130;-117.188;2023-10-19T08:51:44;99314.59;;;15.51;100.00
37848;BME280;23688;33.130;-117.188;2023-10-19T08:54:14;99317.97;;;15.42;100.00
37848;BME280;23688;33.130;-117.188;2023-10-19T08:56:41;99310.00;;;15.37;100.00
37848;BME280;23688;33.130;-117.188;2023-10-19T08:59:08;99313.56;;;15.39;100.00
37848;BME280;23688;33.130;-117.188;2023-10-19T09:01:38;99310.06;;;15.39;100.00
37848;BME280;23688;33.130;-117.188;2023-10-19T09:04:04;99312.69;;;15.40;100.00
37848;BME280;23688;33.130;-117.188;2023-10-19T09:06:35;99292.59;;;15.38;100.00
37848;BME280;23688;33.130;-117.188;2023-10-19T09:09:09;99297.94;;;15.44;100.00
37848;BME280;23688;33.130;-117.188;2023-10-19T09:11:46;99308.53;;;15.52;100.00
37848;BME280;23688;33.130;-117.188;2023-10-19T09:14:17;99305.88;;;15.50;100.00
37848;BME280;23688;33.130;-117.188;2023-10-19T09:16:57;99298.13;;;15.53;100.00
37848;BME280;23688;33.130;-117.188;2023-10-19T09:19:43;99288.34;;;15.45;100.00
37848;BME280;23688;33.130;-117.188;2023-10-19T09:22:10;99275.16;;;15.38;100.00
37848;BME280;23688;33.130;-117.188;2023-10-19T09:24:45;99300.66;;;15.50;100.00
37848;BME280;23688;33.130;-117.188;2023-10-19T09:27:12;99290.13;;;15.47;100.00
37848;BME280;23688;33.130;-117.188;2023-10-19T09:29:39;99290.00;;;15.41;100.00
37848;BME280;23688;33.130;-117.188;2023-10-19T09:32:09;99291.66;;;15.36;100.00
37848;BME280;23688;33.130;-117.188;2023-10-19T09:34:55;99275.63;;;15.17;100.00
37848;BME280;23688;33.130;-117.188;2023-10-19T09:37:22;99288.72;;;15.17;100.00
37848;BME280;23688;33.130;-117.188;2023-10-19T09:39:49;99295.66;;;15.15;100.00
37848;BME280;23688;33.130;-117.188;2023-10-19T09:42:16;99290.28;;;15.09;100.00
37848;BME280;23688;33.130;-117.188;2023-10-19T09:44:45;99279.56;;;14.97;100.00
37848;BME280;23688;33.130;-117.188;2023-10-19T09:47:49;99294.53;;;15.03;100.00
37848;BME280;23688;33.130;-117.188;2023-10-19T09:50:16;99291.03;;;15.02;100.00
37848;BME280;23688;33.130;-117.188;2023-10-19T09:52:43;99282.28;;;15.02;100.00
37848;BME280;23688;33.130;-117.188;2023-10-19T09:58:14;99275.50;;;15.10;100.00
37848;BME280;23688;33.130;-117.188;2023-10-19T10:00:46;99278.22;;;15.16;100.00
37848;BME280;23688;33.130;-117.188;2023-10-19T10:06:10;99271.25;;;15.16;100.00
37848;BME280;23688;33.130;-117.188;2023-10-19T10:08:38;99264.41;;;15.22;100.00
37848;BME280;23688;33.130;-117.188;2023-10-19T10:11:19;99261.75;;;15.20;100.00
37848;BME280;23688;33.130;-117.188;2023-10-19T10:13:46;99268.72;;;15.19;100.00
37848;BME280;23688;33.130;-117.188;2023-10-19T10:16:26;99259.97;;;15.19;100.00
37848;BME280;23688;33.130;-117.188;2023-10-19T10:18:59;99270.38;;;15.16;100.00
37848;BME280;23688;33.130;-117.188;2023-10-19T10:21:27;99260.72;;;15.13;100.00
37848;BME280;23688;33.130;-117.188;2023-10-19T10:23:56;99264.16;;;15.11;100.00
37848;BME280;23688;33.130;-117.188;2023-10-19T10:26:27;99258.91;;;15.08;100.00
37848;BME280;23688;33.130;-117.188;2023-10-19T10:29:14;99247.59;;;15.10;100.00
37848;BME280;23688;33.130;-117.188;2023-10-19T10:31:46;99247.56;;;15.09;100.00
37848;BME280;23688;33.130;-117.188;2023-10-19T10:37:07;99233.47;;;15.01;100.00
37848;BME280;23688;33.130;-117.188;2023-10-19T10:39:35;99236.13;;;15.02;100.00
37848;BME280;23688;33.130;-117.188;2023-10-19T10:42:06;99239.72;;;15.07;100.00
37848;BME280;23688;33.130;-117.188;2023-10-19T10:44:40;99227.47;;;15.06;100.00
37848;BME280;23688;33.130;-117.188;2023-10-19T10:49:54;99224.72;;;14.98;100.00
37848;BME280;23688;33.130;-117.188;2023-10-19T10:52:38;99223.91;;;15.01;100.00
37848;BME280;23688;33.130;-117.188;2023-10-19T10:55:13;99237.06;;;15.06;100.00
37848;BME280;23688;33.130;-117.188;2023-10-19T10:57:41;99225.78;;;15.08;100.00
37848;BME280;23688;33.130;-117.188;2023-10-19T11:00:12;99221.59;;;15.18;100.00
37848;BME280;23688;33.130;-117.188;2023-10-19T11:02:46;99234.09;;;15.34;100.00
37848;BME280;23688;33.130;-117.188;2023-10-19T11:05:17;99232.41;;;15.38;100.00
37848;BME280;23688;33.130;-117.188;2023-10-19T11:10:37;99241.22;;;15.41;100.00
37848;BME280;23688;33.130;-117.188;2023-10-19T11:13:08;99221.81;;;15.30;100.00
37848;BME280;23688;33.130;-117.188;2023-10-19T11:15:37;99235.97;;;15.41;100.00
37848;BME280;23688;33.130;-117.188;2023-10-19T11:18:04;99236.81;;;15.39;100.00
37848;BME280;23688;33.130;-117.188;2023-10-19T11:20:30;99224.34;;;15.26;100.00
37848;BME280;23688;33.130;-117.188;2023-10-19T11:22:57;99226.09;;;15.25;100.00
37848;BME280;23688;33.130;-117.188;2023-10-19T11:25:28;99231.28;;;15.24;100.00
37848;BME280;23688;33.130;-117.188;2023-10-19T11:27:59;99232.19;;;15.26;100.00
37848;BME280;23688;33.130;-117.188;2023-10-19T11:30:26;99234.84;;;15.27;100.00
37848;BME280;23688;33.130;-117.188;2023-10-19T11:32:53;99227.88;;;15.28;100.00
37848;BME280;23688;33.130;-117.188;2023-10-19T11:35:27;99234.13;;;15.36;100.00
37848;BME280;23688;33.130;-117.188;2023-10-19T11:37:57;99221.91;;;15.35;100.00
37848;BME280;23688;33.130;-117.188;2023-10-19T11:40:23;99217.56;;;15.35;100.00
37848;BME280;23688;33.130;-117.188;2023-10-19T11:42:52;99228.25;;;15.49;100.00
37848;BME280;23688;33.130;-117.188;2023-10-19T11:45:18;99220.34;;;15.45;100.00
37848;BME280;23688;33.130;-117.188;2023-10-19T11:47:45;99226.53;;;15.50;100.00
37848;BME280;23688;33.130;-117.188;2023-10-19T11:50:12;99237.03;;;15.53;100.00
37848;BME280;23688;33.130;-117.188;2023-10-19T11:52:42;99244.84;;;15.50;100.00
37848;BME280;23688;33.130;-117.188;2023-10-19T11:55:08;99239.50;;;15.44;100.00
37848;BME280;23688;33.130;-117.188;2023-10-19T11:57:35;99250.03;;;15.47;100.00
37848;BME280;23688;33.130;-117.188;2023-10-19T12:00:03;99236.06;;;15.48;100.00
37848;BME280;23688;33.130;-117.188;2023-10-19T12:02:37;99238.91;;;15.60;100.00
37848;BME280;23688;33.130;-117.188;2023-10-19T12:05:07;99228.44;;;15.58;100.00
37848;BME280;23688;33.130;-117.188;2023-10-19T12:07:39;99244.22;;;15.65;100.00
37848;BME280;23688;33.130;-117.188;2023-10-19T12:10:10;99247.59;;;15.57;100.00
37848;BME280;23688;33.130;-117.188;2023-10-19T12:12:38;99237.94;;;15.55;100.00
37848;BME280;23688;33.130;-117.188;2023-10-19T12:15:06;99242.19;;;15.48;100.00
37848;BME280;23688;33.130;-117.188;2023-10-19T12:17:32;99245.53;;;15.39;100.00
37848;BME280;23688;33.130;-117.188;2023-10-19T12:19:59;99232.19;;;15.24;100.00
37848;BME280;23688;33.130;-117.188;2023-10-19T12:22:25;99233.81;;;15.19;100.00
37848;BME280;23688;33.130;-117.188;2023-10-19T12:24:58;99245.25;;;15.24;100.00
37848;BME280;23688;33.130;-117.188;2023-10-19T12:27:25;99249.63;;;15.25;100.00
37848;BME280;23688;33.130;-117.188;2023-10-19T12:29:51;99238.31;;;15.26;100.00
37848;BME280;23688;33.130;-117.188;2023-10-19T12:32:22;99222.50;;;15.20;100.00
37848;BME280;23688;33.130;-117.188;2023-10-19T12:34:50;99228.69;;;15.25;100.00
37848;BME280;23688;33.130;-117.188;2023-10-19T12:37:19;99242.69;;;15.27;100.00
37848;BME280;23688;33.130;-117.188;2023-10-19T12:39:45;99240.88;;;15.23;100.00
37848;BME280;23688;33.130;-117.188;2023-10-19T12:42:15;99245.25;;;15.24;100.00
37848;BME280;23688;33.130;-117.188;2023-10-19T12:44:41;99240.97;;;15.28;100.00
37848;BME280;23688;33.130;-117.188;2023-10-19T12:47:10;99232.09;;;15.21;100.00
37848;BME280;23688;33.130;-117.188;2023-10-19T12:49:40;99242.56;;;15.21;100.00
37848;BME280;23688;33.130;-117.188;2023-10-19T12:52:08;99245.25;;;15.24;100.00
37848;BME280;23688;33.130;-117.188;2023-10-19T12:54:38;99241.69;;;15.20;100.00